sensor_id;sensor_type;location;lat;lon;timestamp;P1;durP1;ratioP1;P2;durP2;ratioP2
68614;SDS011;55593;51.994;5.882;2022-12-10T00:00:40;61.17;;;29.83;;
68614;SDS011;55593;51.994;5.882;2022-12-10T00:03:10;63.13;;;29.75;;
68614;SDS011;55593;51.994;5.882;2022-12-10T00:05:39;70.05;;;32.92;;
68614;SDS011;55593;51.994;5.882;2022-12-10T00:08:08;61.92;;;31.15;;
68614;SDS011;55593;51.994;5.882;2022-12-10T00:10:38;63.80;;;30.00;;
68614;SDS011;55593;51.994;5.882;2022-12-10T00:13:08;65.10;;;32.58;;
68614;SDS011;55593;51.994;5.882;2022-12-10T00:15:39;60.55;;;30.10;;
68614;SDS011;55593;51.994;5.882;2022-12-10T00:18:08;68.38;;;31.33;;
68614;SDS011;55593;51.994;5.882;2022-12-10T00:20:37;66.28;;;30.58;;
68614;SDS011;55593;51.994;5.882;2022-12-10T00:23:07;61.40;;;29.48;;
68614;SDS011;55593;51.994;5.882;2022-12-10T00:25:36;66.30;;;32.17;;
68614;SDS011;55593;51.994;5.882;2022-12-10T00:28:05;70.13;;;31.50;;
68614;SDS011;55593;51.994;5.882;2022-12-10T00:30:37;64.20;;;29.00;;
68614;SDS011;55593;51.994;5.882;2022-12-10T00:33:06;65.75;;;30.90;;
68614;SDS011;55593;51.994;5.882;2022-12-10T00:35:35;64.95;;;32.20;;
68614;SDS011;55593;51.994;5.882;2022-12-10T00:38:05;68.63;;;32.30;;
68614;SDS011;55593;51.994;5.882;2022-12-10T00:40:34;68.65;;;31.45;;
68614;SDS011;55593;51.994;5.882;2022-12-10T00:43:06;65.35;;;31.50;;
68614;SDS011;55593;51.994;5.882;2022-12-10T00:45:38;63.20;;;31.95;;
68614;SDS011;55593;51.994;5.882;2022-12-10T00:48:07;70.40;;;34.28;;
68614;SDS011;55593;51.994;5.882;2022-12-10T00:50:36;68.28;;;31.27;;
68614;SDS011;55593;51.994;5.882;2022-12-10T00:53:05;64.63;;;30.55;;
68614;SDS011;55593;51.994;5.882;2022-12-10T00:55:35;69.28;;;31.77;;
68614;SDS011;55593;51.994;5.882;2022-12-10T00:58:06;64.35;;;30.58;;
68614;SDS011;55593;51.994;5.882;2022-12-10T01:00:38;70.15;;;31.73;;
68614;SDS011;55593;51.994;5.882;2022-12-10T01:03:07;70.20;;;32.67;;
68614;SDS011;55593;51.994;5.882;2022-12-10T01:05:36;61.35;;;31.35;;
68614;SDS011;55593;51.994;5.882;2022-12-10T01:08:05;69.65;;;33.25;;
68614;SDS011;55593;51.994;5.882;2022-12-10T01:10:34;66.80;;;32.58;;
68614;SDS011;55593;51.994;5.882;2022-12-10T01:13:04;63.97;;;30.35;;
68614;SDS011;55593;51.994;5.882;2022-12-10T01:15:39;66.40;;;32.75;;
68614;SDS011;55593;51.994;5.882;2022-12-10T01:18:08;64.93;;;32.25;;
68614;SDS011;55593;51.994;5.882;2022-12-10T01:20:37;67.53;;;32.72;;
68614;SDS011;55593;51.994;5.882;2022-12-10T01:23:08;67.90;;;33.20;;
68614;SDS011;55593;51.994;5.882;2022-12-10T01:25:40;63.33;;;30.90;;
68614;SDS011;55593;51.994;5.882;2022-12-10T01:28:09;72.38;;;32.88;;
68614;SDS011;55593;51.994;5.882;2022-12-10T01:30:41;67.38;;;32.38;;
68614;SDS011;55593;51.994;5.882;2022-12-10T01:33:10;65.68;;;31.70;;
68614;SDS011;55593;51.994;5.882;2022-12-10T01:35:39;68.53;;;32.15;;
68614;SDS011;55593;51.994;5.882;2022-12-10T01:38:08;67.85;;;32.72;;
68614;SDS011;55593;51.994;5.882;2022-12-10T01:40:39;62.90;;;30.88;;
68614;SDS011;55593;51.994;5.882;2022-12-10T01:43:09;60.03;;;30.80;;
68614;SDS011;55593;51.994;5.882;2022-12-10T01:45:44;68.05;;;32.65;;
68614;SDS011;55593;51.994;5.882;2022-12-10T01:48:13;66.85;;;32.45;;
68614;SDS011;55593;51.994;5.882;2022-12-10T01:50:43;64.75;;;31.65;;
68614;SDS011;55593;51.994;5.882;2022-12-10T01:53:13;65.60;;;32.00;;
68614;SDS011;55593;51.994;5.882;2022-12-10T01:55:44;62.80;;;31.23;;
68614;SDS011;55593;51.994;5.882;2022-12-10T01:58:15;63.42;;;31.35;;
68614;SDS011;55593;51.994;5.882;2022-12-10T02:00:52;66.10;;;31.75;;
68614;SDS011;55593;51.994;5.882;2022-12-10T02:03:27;65.50;;;30.38;;
68614;SDS011;55593;51.994;5.882;2022-12-10T02:06:02;62.83;;;29.30;;
68614;SDS011;55593;51.994;5.882;2022-12-10T02:08:39;61.28;;;29.85;;
68614;SDS011;55593;51.994;5.882;2022-12-10T02:11:13;68.43;;;31.77;;
68614;SDS011;55593;51.994;5.882;2022-12-10T02:13:45;65.30;;;32.65;;
68614;SDS011;55593;51.994;5.882;2022-12-10T02:16:26;65.45;;;31.35;;
68614;SDS011;55593;51.994;5.882;2022-12-10T02:19:02;62.03;;;31.23;;
68614;SDS011;55593;51.994;5.882;2022-12-10T02:21:36;67.05;;;32.42;;
68614;SDS011;55593;51.994;5.882;2022-12-10T02:24:07;66.10;;;31.85;;
68614;SDS011;55593;51.994;5.882;2022-12-10T02:26:40;65.80;;;32.35;;
68614;SDS011;55593;51.994;5.882;2022-12-10T02:29:17;66.22;;;31.35;;
68614;SDS011;55593;51.994;5.882;2022-12-10T02:31:47;62.75;;;31.55;;
68614;SDS011;55593;51.994;5.882;2022-12-10T02:34:19;62.70;;;31.73;;
68614;SDS011;55593;51.994;5.882;2022-12-10T02:36:51;63.75;;;31.83;;
68614;SDS011;55593;51.994;5.882;2022-12-10T02:39:23;68.03;;;33.47;;
68614;SDS011;55593;51.994;5.882;2022-12-10T02:41:57;64.45;;;31.83;;
68614;SDS011;55593;51.994;5.882;2022-12-10T02:44:31;64.32;;;31.58;;
68614;SDS011;55593;51.994;5.882;2022-12-10T02:47:02;65.60;;;34.13;;
68614;SDS011;55593;51.994;5.882;2022-12-10T02:49:36;68.13;;;32.47;;
68614;SDS011;55593;51.994;5.882;2022-12-10T02:52:06;68.35;;;32.17;;
68614;SDS011;55593;51.994;5.882;2022-12-10T02:54:41;66.85;;;32.53;;
68614;SDS011;55593;51.994;5.882;2022-12-10T02:57:21;63.05;;;30.10;;
68614;SDS011;55593;51.994;5.882;2022-12-10T03:00:03;61.70;;;32.05;;
68614;SDS011;55593;51.994;5.882;2022-12-10T03:02:52;61.20;;;31.65;;
68614;SDS011;55593;51.994;5.882;2022-12-10T03:05:35;70.75;;;33.63;;
68614;SDS011;55593;51.994;5.882;2022-12-10T03:08:12;68.75;;;32.90;;
68614;SDS011;55593;51.994;5.882;2022-12-10T03:10:45;66.30;;;31.85;;
68614;SDS011;55593;51.994;5.882;2022-12-10T03:13:20;62.75;;;30.65;;
68614;SDS011;55593;51.994;5.882;2022-12-10T03:15:54;73.80;;;33.65;;
68614;SDS011;55593;51.994;5.882;2022-12-10T03:18:24;59.72;;;31.58;;
68614;SDS011;55593;51.994;5.882;2022-12-10T03:20:53;65.30;;;31.30;;
68614;SDS011;55593;51.994;5.882;2022-12-10T03:23:25;64.68;;;33.03;;
68614;SDS011;55593;51.994;5.882;2022-12-10T03:25:55;68.53;;;33.20;;
68614;SDS011;55593;51.994;5.882;2022-12-10T03:28:25;69.15;;;33.88;;
68614;SDS011;55593;51.994;5.882;2022-12-10T03:30:57;73.20;;;33.72;;
68614;SDS011;55593;51.994;5.882;2022-12-10T03:33:26;67.97;;;32.03;;
68614;SDS011;55593;51.994;5.882;2022-12-10T03:35:56;65.57;;;31.23;;
68614;SDS011;55593;51.994;5.882;2022-12-10T03:38:25;69.63;;;34.17;;
68614;SDS011;55593;51.994;5.882;2022-12-10T03:40:54;68.38;;;34.53;;
68614;SDS011;55593;51.994;5.882;2022-12-10T03:43:24;66.35;;;33.08;;
68614;SDS011;55593;51.994;5.882;2022-12-10T03:45:54;65.15;;;33.88;;
68614;SDS011;55593;51.994;5.882;2022-12-10T03:48:25;67.10;;;32.55;;
68614;SDS011;55593;51.994;5.882;2022-12-10T03:50:55;70.15;;;31.30;;
68614;SDS011;55593;51.994;5.882;2022-12-10T03:53:24;69.82;;;35.10;;
68614;SDS011;55593;51.994;5.882;2022-12-10T03:55:53;68.07;;;33.58;;
68614;SDS011;55593;51.994;5.882;2022-12-10T03:58:23;68.10;;;33.55;;
68614;SDS011;55593;51.994;5.882;2022-12-10T04:00:52;69.57;;;32.65;;
68614;SDS011;55593;51.994;5.882;2022-12-10T04:03:23;68.85;;;33.83;;
68614;SDS011;55593;51.994;5.882;2022-12-10T04:05:53;73.53;;;35.85;;
68614;SDS011;55593;51.994;5.882;2022-12-10T04:08:22;69.60;;;32.88;;
68614;SDS011;55593;51.994;5.882;2022-12-10T04:10:51;69.85;;;33.03;;
68614;SDS011;55593;51.994;5.882;2022-12-10T04:13:20;78.05;;;33.97;;
68614;SDS011;55593;51.994;5.882;2022-12-10T04:16:02;73.68;;;33.15;;
68614;SDS011;55593;51.994;5.882;2022-12-10T04:18:48;70.53;;;34.70;;
68614;SDS011;55593;51.994;5.882;2022-12-10T04:21:17;81.53;;;33.90;;
68614;SDS011;55593;51.994;5.882;2022-12-10T04:23:59;77.25;;;35.60;;
68614;SDS011;55593;51.994;5.882;2022-12-10T04:26:40;79.80;;;37.00;;
68614;SDS011;55593;51.994;5.882;2022-12-10T04:29:22;70.60;;;33.72;;
68614;SDS011;55593;51.994;5.882;2022-12-10T04:31:52;98.97;;;39.35;;
68614;SDS011;55593;51.994;5.882;2022-12-10T04:34:24;102.95;;;37.20;;
68614;SDS011;55593;51.994;5.882;2022-12-10T04:36:53;86.68;;;38.80;;
68614;SDS011;55593;51.994;5.882;2022-12-10T04:39:23;84.90;;;39.10;;
68614;SDS011;55593;51.994;5.882;2022-12-10T04:41:53;87.43;;;39.22;;
68614;SDS011;55593;51.994;5.882;2022-12-10T04:44:22;109.97;;;40.67;;
68614;SDS011;55593;51.994;5.882;2022-12-10T04:46:51;166.38;;;42.45;;
68614;SDS011;55593;51.994;5.882;2022-12-10T04:49:24;94.85;;;38.13;;
68614;SDS011;55593;51.994;5.882;2022-12-10T04:51:53;205.45;;;46.30;;
68614;SDS011;55593;51.994;5.882;2022-12-10T04:54:22;176.45;;;42.40;;
68614;SDS011;55593;51.994;5.882;2022-12-10T04:56:53;103.15;;;42.45;;
68614;SDS011;55593;51.994;5.882;2022-12-10T04:59:22;147.07;;;43.97;;
68614;SDS011;55593;51.994;5.882;2022-12-10T05:01:52;102.35;;;41.10;;
68614;SDS011;55593;51.994;5.882;2022-12-10T05:04:24;107.70;;;40.90;;
68614;SDS011;55593;51.994;5.882;2022-12-10T05:06:53;102.32;;;41.05;;
68614;SDS011;55593;51.994;5.882;2022-12-10T05:09:25;115.20;;;40.55;;
68614;SDS011;55593;51.994;5.882;2022-12-10T05:11:54;154.73;;;42.00;;
68614;SDS011;55593;51.994;5.882;2022-12-10T05:14:23;143.20;;;45.13;;
68614;SDS011;55593;51.994;5.882;2022-12-10T05:16:52;122.10;;;42.70;;
68614;SDS011;55593;51.994;5.882;2022-12-10T05:19:24;92.68;;;44.42;;
68614;SDS011;55593;51.994;5.882;2022-12-10T05:21:54;187.00;;;46.65;;
68614;SDS011;55593;51.994;5.882;2022-12-10T05:24:36;164.75;;;43.03;;
68614;SDS011;55593;51.994;5.882;2022-12-10T05:27:05;136.32;;;43.50;;
68614;SDS011;55593;51.994;5.882;2022-12-10T05:29:34;134.75;;;42.72;;
68614;SDS011;55593;51.994;5.882;2022-12-10T05:32:04;174.38;;;42.85;;
68614;SDS011;55593;51.994;5.882;2022-12-10T05:34:36;142.88;;;47.28;;
68614;SDS011;55593;51.994;5.882;2022-12-10T05:37:05;248.15;;;46.25;;
68614;SDS011;55593;51.994;5.882;2022-12-10T05:39:35;227.02;;;44.35;;
68614;SDS011;55593;51.994;5.882;2022-12-10T05:42:04;298.17;;;45.50;;
68614;SDS011;55593;51.994;5.882;2022-12-10T05:44:33;162.93;;;45.10;;
68614;SDS011;55593;51.994;5.882;2022-12-10T05:47:02;160.63;;;43.10;;
68614;SDS011;55593;51.994;5.882;2022-12-10T05:49:31;114.05;;;42.78;;
68614;SDS011;55593;51.994;5.882;2022-12-10T05:52:03;378.48;;;51.78;;
68614;SDS011;55593;51.994;5.882;2022-12-10T05:54:34;486.60;;;53.55;;
68614;SDS011;55593;51.994;5.882;2022-12-10T05:57:03;149.18;;;42.65;;
68614;SDS011;55593;51.994;5.882;2022-12-10T05:59:34;308.50;;;46.13;;
68614;SDS011;55593;51.994;5.882;2022-12-10T06:02:03;298.52;;;50.17;;
68614;SDS011;55593;51.994;5.882;2022-12-10T06:04:32;454.38;;;58.63;;
68614;SDS011;55593;51.994;5.882;2022-12-10T06:07:04;125.10;;;43.90;;
68614;SDS011;55593;51.994;5.882;2022-12-10T06:09:33;283.80;;;46.47;;
68614;SDS011;55593;51.994;5.882;2022-12-10T06:12:02;230.32;;;47.03;;
68614;SDS011;55593;51.994;5.882;2022-12-10T06:14:32;147.73;;;45.05;;
68614;SDS011;55593;51.994;5.882;2022-12-10T06:17:01;158.55;;;45.80;;
68614;SDS011;55593;51.994;5.882;2022-12-10T06:19:30;442.75;;;53.10;;
68614;SDS011;55593;51.994;5.882;2022-12-10T06:21:59;292.05;;;46.45;;
68614;SDS011;55593;51.994;5.882;2022-12-10T06:24:33;403.73;;;52.78;;
68614;SDS011;55593;51.994;5.882;2022-12-10T06:27:02;327.98;;;52.60;;
68614;SDS011;55593;51.994;5.882;2022-12-10T06:29:32;399.63;;;54.00;;
68614;SDS011;55593;51.994;5.882;2022-12-10T06:32:01;357.40;;;48.33;;
68614;SDS011;55593;51.994;5.882;2022-12-10T06:34:31;417.17;;;52.35;;
68614;SDS011;55593;51.994;5.882;2022-12-10T06:37:00;576.63;;;59.63;;
68614;SDS011;55593;51.994;5.882;2022-12-10T06:39:32;388.45;;;49.35;;
68614;SDS011;55593;51.994;5.882;2022-12-10T06:42:01;600.83;;;63.55;;
68614;SDS011;55593;51.994;5.882;2022-12-10T06:44:31;288.80;;;49.80;;
68614;SDS011;55593;51.994;5.882;2022-12-10T06:47:00;300.63;;;47.70;;
68614;SDS011;55593;51.994;5.882;2022-12-10T06:49:29;411.98;;;53.13;;
68614;SDS011;55593;51.994;5.882;2022-12-10T06:51:59;246.43;;;47.05;;
68614;SDS011;55593;51.994;5.882;2022-12-10T06:54:28;289.13;;;47.50;;
68614;SDS011;55593;51.994;5.882;2022-12-10T06:57:00;258.83;;;48.63;;
68614;SDS011;55593;51.994;5.882;2022-12-10T06:59:30;198.75;;;45.13;;
68614;SDS011;55593;51.994;5.882;2022-12-10T07:01:59;122.30;;;44.38;;
68614;SDS011;55593;51.994;5.882;2022-12-10T07:04:28;647.47;;;66.72;;
68614;SDS011;55593;51.994;5.882;2022-12-10T07:06:57;342.75;;;48.95;;
68614;SDS011;55593;51.994;5.882;2022-12-10T07:09:26;506.27;;;52.92;;
68614;SDS011;55593;51.994;5.882;2022-12-10T07:11:58;382.13;;;50.22;;
68614;SDS011;55593;51.994;5.882;2022-12-10T07:14:27;209.00;;;40.55;;
68614;SDS011;55593;51.994;5.882;2022-12-10T07:16:56;258.67;;;42.30;;
68614;SDS011;55593;51.994;5.882;2022-12-10T07:19:28;299.70;;;43.78;;
68614;SDS011;55593;51.994;5.882;2022-12-10T07:21:57;212.27;;;39.28;;
68614;SDS011;55593;51.994;5.882;2022-12-10T07:24:29;365.15;;;43.55;;
68614;SDS011;55593;51.994;5.882;2022-12-10T07:27:03;116.40;;;36.85;;
68614;SDS011;55593;51.994;5.882;2022-12-10T07:29:33;196.50;;;38.47;;
68614;SDS011;55593;51.994;5.882;2022-12-10T07:32:03;527.70;;;51.03;;
68614;SDS011;55593;51.994;5.882;2022-12-10T07:34:32;141.13;;;37.65;;
68614;SDS011;55593;51.994;5.882;2022-12-10T07:37:02;115.38;;;39.42;;
68614;SDS011;55593;51.994;5.882;2022-12-10T07:39:31;124.47;;;38.60;;
68614;SDS011;55593;51.994;5.882;2022-12-10T07:42:03;456.80;;;48.67;;
68614;SDS011;55593;51.994;5.882;2022-12-10T07:44:37;419.90;;;51.10;;
68614;SDS011;55593;51.994;5.882;2022-12-10T07:47:06;220.35;;;40.90;;
68614;SDS011;55593;51.994;5.882;2022-12-10T07:49:35;110.55;;;35.28;;
68614;SDS011;55593;51.994;5.882;2022-12-10T07:52:04;222.77;;;39.92;;
68614;SDS011;55593;51.994;5.882;2022-12-10T07:54:35;175.70;;;39.15;;
68614;SDS011;55593;51.994;5.882;2022-12-10T07:57:07;290.10;;;40.05;;
68614;SDS011;55593;51.994;5.882;2022-12-10T07:59:36;215.18;;;37.30;;
68614;SDS011;55593;51.994;5.882;2022-12-10T08:02:07;223.30;;;40.50;;
68614;SDS011;55593;51.994;5.882;2022-12-10T08:04:36;122.75;;;38.63;;
68614;SDS011;55593;51.994;5.882;2022-12-10T08:07:06;150.65;;;36.47;;
68614;SDS011;55593;51.994;5.882;2022-12-10T08:09:35;198.57;;;39.90;;
68614;SDS011;55593;51.994;5.882;2022-12-10T08:12:07;173.88;;;36.65;;
68614;SDS011;55593;51.994;5.882;2022-12-10T08:14:36;129.75;;;36.85;;
68614;SDS011;55593;51.994;5.882;2022-12-10T08:17:05;199.77;;;38.00;;
68614;SDS011;55593;51.994;5.882;2022-12-10T08:19:35;306.08;;;44.92;;
68614;SDS011;55593;51.994;5.882;2022-12-10T08:22:04;150.25;;;36.72;;
68614;SDS011;55593;51.994;5.882;2022-12-10T08:24:33;120.32;;;37.10;;
68614;SDS011;55593;51.994;5.882;2022-12-10T08:27:02;115.93;;;37.65;;
68614;SDS011;55593;51.994;5.882;2022-12-10T08:29:34;242.98;;;41.10;;
68614;SDS011;55593;51.994;5.882;2022-12-10T08:32:03;236.85;;;41.47;;
68614;SDS011;55593;51.994;5.882;2022-12-10T08:34:33;205.60;;;39.97;;
68614;SDS011;55593;51.994;5.882;2022-12-10T08:37:02;205.77;;;39.22;;
68614;SDS011;55593;51.994;5.882;2022-12-10T08:39:32;136.38;;;38.35;;
68614;SDS011;55593;51.994;5.882;2022-12-10T08:42:01;245.93;;;39.92;;
68614;SDS011;55593;51.994;5.882;2022-12-10T08:44:30;195.57;;;40.80;;
68614;SDS011;55593;51.994;5.882;2022-12-10T08:47:02;172.90;;;40.60;;
68614;SDS011;55593;51.994;5.882;2022-12-10T08:49:31;208.18;;;39.42;;
68614;SDS011;55593;51.994;5.882;2022-12-10T08:52:00;189.57;;;39.10;;
68614;SDS011;55593;51.994;5.882;2022-12-10T08:54:29;242.80;;;38.67;;
68614;SDS011;55593;51.994;5.882;2022-12-10T08:56:59;104.97;;;36.45;;
68614;SDS011;55593;51.994;5.882;2022-12-10T08:59:28;307.90;;;41.75;;
68614;SDS011;55593;51.994;5.882;2022-12-10T09:01:57;114.15;;;37.55;;
68614;SDS011;55593;51.994;5.882;2022-12-10T09:04:29;117.07;;;36.83;;
68614;SDS011;55593;51.994;5.882;2022-12-10T09:06:58;172.30;;;41.90;;
68614;SDS011;55593;51.994;5.882;2022-12-10T09:09:27;137.70;;;36.72;;
68614;SDS011;55593;51.994;5.882;2022-12-10T09:11:57;153.35;;;38.63;;
68614;SDS011;55593;51.994;5.882;2022-12-10T09:14:26;102.93;;;36.67;;
68614;SDS011;55593;51.994;5.882;2022-12-10T09:16:55;409.08;;;47.20;;
68614;SDS011;55593;51.994;5.882;2022-12-10T09:19:24;129.23;;;39.67;;
68614;SDS011;55593;51.994;5.882;2022-12-10T09:21:56;107.18;;;37.95;;
68614;SDS011;55593;51.994;5.882;2022-12-10T09:24:26;128.70;;;37.45;;
68614;SDS011;55593;51.994;5.882;2022-12-10T09:26:55;111.82;;;32.63;;
68614;SDS011;55593;51.994;5.882;2022-12-10T09:29:25;165.73;;;33.83;;
68614;SDS011;55593;51.994;5.882;2022-12-10T09:31:54;127.50;;;33.47;;
68614;SDS011;55593;51.994;5.882;2022-12-10T09:34:23;135.45;;;30.60;;
68614;SDS011;55593;51.994;5.882;2022-12-10T09:36:52;131.07;;;35.90;;
68614;SDS011;55593;51.994;5.882;2022-12-10T09:39:24;146.65;;;33.03;;
68614;SDS011;55593;51.994;5.882;2022-12-10T09:42:00;123.55;;;33.58;;
68614;SDS011;55593;51.994;5.882;2022-12-10T09:44:38;224.68;;;34.58;;
68614;SDS011;55593;51.994;5.882;2022-12-10T09:47:15;123.13;;;30.77;;
68614;SDS011;55593;51.994;5.882;2022-12-10T09:49:48;196.32;;;35.85;;
68614;SDS011;55593;51.994;5.882;2022-12-10T09:52:22;109.50;;;31.35;;
68614;SDS011;55593;51.994;5.882;2022-12-10T09:54:59;219.25;;;34.08;;
68614;SDS011;55593;51.994;5.882;2022-12-10T09:57:29;184.27;;;32.22;;
68614;SDS011;55593;51.994;5.882;2022-12-10T10:00:02;145.55;;;31.23;;
68614;SDS011;55593;51.994;5.882;2022-12-10T10:02:37;215.10;;;37.28;;
68614;SDS011;55593;51.994;5.882;2022-12-10T10:05:10;152.20;;;31.88;;
68614;SDS011;55593;51.994;5.882;2022-12-10T10:07:41;200.48;;;32.90;;
68614;SDS011;55593;51.994;5.882;2022-12-10T10:10:19;266.35;;;35.67;;
68614;SDS011;55593;51.994;5.882;2022-12-10T10:12:52;162.98;;;33.20;;
68614;SDS011;55593;51.994;5.882;2022-12-10T10:15:26;155.45;;;32.53;;
68614;SDS011;55593;51.994;5.882;2022-12-10T10:18:00;177.98;;;35.47;;
68614;SDS011;55593;51.994;5.882;2022-12-10T10:20:31;268.00;;;40.53;;
68614;SDS011;55593;51.994;5.882;2022-12-10T10:23:00;104.55;;;32.35;;
68614;SDS011;55593;51.994;5.882;2022-12-10T10:25:32;115.90;;;34.55;;
68614;SDS011;55593;51.994;5.882;2022-12-10T10:28:02;379.63;;;40.63;;
68614;SDS011;55593;51.994;5.882;2022-12-10T10:30:31;117.32;;;32.47;;
68614;SDS011;55593;51.994;5.882;2022-12-10T10:33:01;254.90;;;36.05;;
68614;SDS011;55593;51.994;5.882;2022-12-10T10:35:41;154.30;;;32.28;;
68614;SDS011;55593;51.994;5.882;2022-12-10T10:38:16;281.95;;;37.92;;
68614;SDS011;55593;51.994;5.882;2022-12-10T10:40:52;185.00;;;35.67;;
68614;SDS011;55593;51.994;5.882;2022-12-10T10:43:22;176.95;;;35.53;;
68614;SDS011;55593;51.994;5.882;2022-12-10T10:45:53;111.20;;;34.08;;
68614;SDS011;55593;51.994;5.882;2022-12-10T10:48:24;399.73;;;41.60;;
68614;SDS011;55593;51.994;5.882;2022-12-10T10:50:54;174.23;;;37.20;;
68614;SDS011;55593;51.994;5.882;2022-12-10T10:53:28;396.90;;;40.55;;
68614;SDS011;55593;51.994;5.882;2022-12-10T10:56:04;257.90;;;39.75;;
68614;SDS011;55593;51.994;5.882;2022-12-10T11:01:06;328.60;;;38.75;;
68614;SDS011;55593;51.994;5.882;2022-12-10T11:03:36;201.07;;;34.42;;
68614;SDS011;55593;51.994;5.882;2022-12-10T11:06:06;262.38;;;35.85;;
68614;SDS011;55593;51.994;5.882;2022-12-10T11:08:37;155.95;;;32.72;;
68614;SDS011;55593;51.994;5.882;2022-12-10T11:11:13;160.45;;;35.20;;
68614;SDS011;55593;51.994;5.882;2022-12-10T11:13:46;144.60;;;32.17;;
68614;SDS011;55593;51.994;5.882;2022-12-10T11:16:17;282.42;;;37.95;;
68614;SDS011;55593;51.994;5.882;2022-12-10T11:18:55;114.75;;;32.30;;
68614;SDS011;55593;51.994;5.882;2022-12-10T11:21:28;92.82;;;29.75;;
68614;SDS011;55593;51.994;5.882;2022-12-10T11:23:58;109.20;;;32.50;;
68614;SDS011;55593;51.994;5.882;2022-12-10T11:26:34;104.18;;;29.52;;
68614;SDS011;55593;51.994;5.882;2022-12-10T11:29:14;126.05;;;31.42;;
68614;SDS011;55593;51.994;5.882;2022-12-10T11:31:54;163.48;;;33.15;;
68614;SDS011;55593;51.994;5.882;2022-12-10T11:34:30;192.27;;;32.97;;
68614;SDS011;55593;51.994;5.882;2022-12-10T11:37:06;86.85;;;29.60;;
68614;SDS011;55593;51.994;5.882;2022-12-10T11:39:52;217.13;;;34.13;;
68614;SDS011;55593;51.994;5.882;2022-12-10T11:42:30;218.05;;;34.72;;
68614;SDS011;55593;51.994;5.882;2022-12-10T11:45:06;110.45;;;28.67;;
68614;SDS011;55593;51.994;5.882;2022-12-10T11:47:42;100.40;;;29.80;;
68614;SDS011;55593;51.994;5.882;2022-12-10T11:50:18;103.95;;;29.65;;
68614;SDS011;55593;51.994;5.882;2022-12-10T11:52:55;151.57;;;28.50;;
68614;SDS011;55593;51.994;5.882;2022-12-10T11:55:32;102.40;;;28.90;;
68614;SDS011;55593;51.994;5.882;2022-12-10T11:58:15;104.33;;;28.03;;
68614;SDS011;55593;51.994;5.882;2022-12-10T12:00:52;192.93;;;30.17;;
68614;SDS011;55593;51.994;5.882;2022-12-10T12:06:33;340.88;;;39.63;;
68614;SDS011;55593;51.994;5.882;2022-12-10T12:09:13;279.92;;;39.65;;
68614;SDS011;55593;51.994;5.882;2022-12-10T12:11:50;225.73;;;27.92;;
68614;SDS011;55593;51.994;5.882;2022-12-10T12:14:29;374.92;;;34.75;;
68614;SDS011;55593;51.994;5.882;2022-12-10T12:17:02;162.07;;;28.25;;
68614;SDS011;55593;51.994;5.882;2022-12-10T12:19:34;84.03;;;26.02;;
68614;SDS011;55593;51.994;5.882;2022-12-10T12:22:09;108.10;;;26.92;;
68614;SDS011;55593;51.994;5.882;2022-12-10T12:24:42;159.90;;;30.33;;
68614;SDS011;55593;51.994;5.882;2022-12-10T12:27:16;259.55;;;34.15;;
68614;SDS011;55593;51.994;5.882;2022-12-10T12:32:24;264.38;;;35.50;;
68614;SDS011;55593;51.994;5.882;2022-12-10T12:34:56;319.52;;;36.38;;
68614;SDS011;55593;51.994;5.882;2022-12-10T12:37:29;224.75;;;31.85;;
68614;SDS011;55593;51.994;5.882;2022-12-10T12:40:03;252.55;;;32.05;;
68614;SDS011;55593;51.994;5.882;2022-12-10T12:42:42;265.85;;;30.98;;
68614;SDS011;55593;51.994;5.882;2022-12-10T12:45:19;241.48;;;32.15;;
68614;SDS011;55593;51.994;5.882;2022-12-10T12:47:51;461.95;;;37.92;;
68614;SDS011;55593;51.994;5.882;2022-12-10T12:50:25;316.30;;;37.40;;
68614;SDS011;55593;51.994;5.882;2022-12-10T12:52:58;126.82;;;31.02;;
68614;SDS011;55593;51.994;5.882;2022-12-10T12:55:30;363.08;;;37.30;;
68614;SDS011;55593;51.994;5.882;2022-12-10T12:58:13;200.68;;;32.10;;
68614;SDS011;55593;51.994;5.882;2022-12-10T13:00:48;172.40;;;30.70;;
68614;SDS011;55593;51.994;5.882;2022-12-10T13:03:31;119.70;;;30.92;;
68614;SDS011;55593;51.994;5.882;2022-12-10T13:06:17;264.10;;;35.28;;
68614;SDS011;55593;51.994;5.882;2022-12-10T13:08:49;167.43;;;33.80;;
68614;SDS011;55593;51.994;5.882;2022-12-10T13:11:29;101.60;;;31.08;;
68614;SDS011;55593;51.994;5.882;2022-12-10T13:14:04;267.73;;;32.85;;
68614;SDS011;55593;51.994;5.882;2022-12-10T13:16:58;233.30;;;34.85;;
68614;SDS011;55593;51.994;5.882;2022-12-10T13:19:53;294.33;;;32.63;;
68614;SDS011;55593;51.994;5.882;2022-12-10T13:25:11;282.70;;;33.45;;
68614;SDS011;55593;51.994;5.882;2022-12-10T13:27:53;140.93;;;28.55;;
68614;SDS011;55593;51.994;5.882;2022-12-10T13:30:31;75.82;;;27.08;;
68614;SDS011;55593;51.994;5.882;2022-12-10T13:33:11;104.40;;;28.55;;
68614;SDS011;55593;51.994;5.882;2022-12-10T13:35:55;109.28;;;28.55;;
68614;SDS011;55593;51.994;5.882;2022-12-10T13:38:26;322.45;;;35.72;;
68614;SDS011;55593;51.994;5.882;2022-12-10T13:40:57;219.13;;;31.02;;
68614;SDS011;55593;51.994;5.882;2022-12-10T13:43:41;360.40;;;34.00;;
68614;SDS011;55593;51.994;5.882;2022-12-10T13:46:24;109.07;;;29.52;;
68614;SDS011;55593;51.994;5.882;2022-12-10T13:48:57;145.73;;;29.42;;
68614;SDS011;55593;51.994;5.882;2022-12-10T13:51:32;183.80;;;25.80;;
68614;SDS011;55593;51.994;5.882;2022-12-10T13:54:16;89.10;;;26.33;;
68614;SDS011;55593;51.994;5.882;2022-12-10T13:56:54;88.35;;;27.92;;
68614;SDS011;55593;51.994;5.882;2022-12-10T14:02:02;91.53;;;27.33;;
68614;SDS011;55593;51.994;5.882;2022-12-10T14:04:53;146.77;;;30.25;;
68614;SDS011;55593;51.994;5.882;2022-12-10T14:07:46;135.35;;;28.42;;
68614;SDS011;55593;51.994;5.882;2022-12-10T14:10:26;196.13;;;28.08;;
68614;SDS011;55593;51.994;5.882;2022-12-10T14:12:59;177.15;;;26.80;;
68614;SDS011;55593;51.994;5.882;2022-12-10T14:15:28;208.32;;;29.05;;
68614;SDS011;55593;51.994;5.882;2022-12-10T14:17:59;166.02;;;28.33;;
68614;SDS011;55593;51.994;5.882;2022-12-10T14:20:33;98.38;;;24.80;;
68614;SDS011;55593;51.994;5.882;2022-12-10T14:23:05;284.73;;;31.52;;
68614;SDS011;55593;51.994;5.882;2022-12-10T14:26:04;305.98;;;34.80;;
68614;SDS011;55593;51.994;5.882;2022-12-10T14:28:37;74.47;;;24.23;;
68614;SDS011;55593;51.994;5.882;2022-12-10T14:31:10;74.25;;;22.95;;
68614;SDS011;55593;51.994;5.882;2022-12-10T14:33:43;268.08;;;30.75;;
68614;SDS011;55593;51.994;5.882;2022-12-10T14:36:18;151.23;;;26.58;;
68614;SDS011;55593;51.994;5.882;2022-12-10T14:38:55;261.38;;;30.50;;
68614;SDS011;55593;51.994;5.882;2022-12-10T14:41:25;525.85;;;38.90;;
68614;SDS011;55593;51.994;5.882;2022-12-10T14:43:57;123.38;;;22.70;;
68614;SDS011;55593;51.994;5.882;2022-12-10T14:46:31;158.13;;;24.25;;
68614;SDS011;55593;51.994;5.882;2022-12-10T14:49:00;135.55;;;24.42;;
68614;SDS011;55593;51.994;5.882;2022-12-10T14:51:33;153.80;;;23.60;;
68614;SDS011;55593;51.994;5.882;2022-12-10T14:54:12;107.47;;;26.75;;
68614;SDS011;55593;51.994;5.882;2022-12-10T14:56:52;83.03;;;22.20;;